Time;durP1;ratioP1;P1;durP2;ratioP2;P2;SDS_P1;SDS_P2;PMS_P1;PMS_P2;Temp;Humidity;BMP_temperature;BMP_pressure;BME280_temperature;BME280_humidity;BME280_pressure;Samples;Min_cycle;Max_cycle;Signal;HPM_P1;HPM_P2
2023/06/10 06:23:17;;;;;;;2.70;2.50;;;23.70;51.80;;;;;;4957403;27;1945115;-60
2023/06/10 06:25:42;;;;;;;4.05;3.05;;;23.70;52.80;;;;;;5040458;28;45728;-60
2023/06/10 06:28:10;;;;;;;4.03;3.55;;;23.90;52.50;;;;;;5045777;28;45212;-60
2023/06/10 06:30:35;;;;;;;3.80;3.50;;;24.00;52.20;;;;;;5051218;27;45176;-61
2023/06/10 06:33:01;;;;;;;4.75;3.92;;;24.20;52.10;;;;;;5020618;28;45864;-60
2023/06/10 06:35:27;;;;;;;5.20;3.80;;;24.30;51.80;;;;;;5019384;28;44964;-62
2023/06/10 06:37:53;;;;;;;5.05;4.00;;;24.40;51.40;;;;;;5058778;27;45513;-66
2023/06/10 06:40:18;;;;;;;5.32;3.95;;;24.50;51.10;;;;;;5019143;28;46117;-62
2023/06/10 06:42:44;;;;;;;4.75;4.00;;;24.60;50.90;;;;;;5027284;28;45180;-61
2023/06/10 06:45:10;;;;;;;4.45;3.95;;;24.70;50.70;;;;;;5032591;28;45212;-63
2023/06/10 06:47:35;;;;;;;6.32;4.40;;;24.80;50.50;;;;;;5017556;28;45135;-62
2023/06/10 06:50:02;;;;;;;4.57;4.05;;;24.90;50.20;;;;;;5028285;28;44745;-62
2023/06/10 06:52:27;;;;;;;5.35;4.22;;;25.00;50.10;;;;;;5023650;28;45692;-62
2023/06/10 06:54:53;;;;;;;4.97;4.10;;;25.10;49.90;;;;;;5028271;28;45221;-61
2023/06/10 06:57:19;;;;;;;6.28;4.35;;;25.10;49.70;;;;;;5023616;28;45311;-62
2023/06/10 06:59:44;;;;;;;4.22;3.83;;;25.20;49.50;;;;;;5033690;28;45304;-62
2023/06/10 07:02:10;;;;;;;4.43;4.03;;;25.30;49.40;;;;;;5013042;28;46025;-63
2023/06/10 07:04:36;;;;;;;4.30;3.90;;;25.40;49.40;;;;;;5026973;28;45254;-62
2023/06/10 07:07:02;;;;;;;4.80;4.40;;;25.50;49.20;;;;;;5035569;28;45838;-63
2023/06/10 07:09:28;;;;;;;4.72;3.90;;;25.50;49.10;;;;;;5022040;28;45159;-61
2023/06/10 07:11:53;;;;;;;4.45;3.60;;;25.50;48.90;;;;;;5023411;28;46191;-62
2023/06/10 07:14:19;;;;;;;5.50;4.30;;;25.60;48.80;;;;;;5023611;28;44647;-62
2023/06/10 07:16:45;;;;;;;6.90;4.22;;;25.70;48.70;;;;;;5016100;28;45252;-61
2023/06/10 07:19:11;;;;;;;4.40;4.00;;;25.80;48.70;;;;;;5027412;28;45193;-64
2023/06/10 07:21:37;;;;;;;4.70;3.70;;;25.80;48.50;;;;;;5012804;28;46808;-61
2023/06/10 07:24:03;;;;;;;4.40;3.97;;;25.90;48.50;;;;;;5027145;28;45345;-62
2023/06/10 07:26:29;;;;;;;4.53;4.13;;;25.90;48.40;;;;;;5021410;28;45200;-61
2023/06/10 07:28:54;;;;;;;6.45;4.25;;;26.00;48.30;;;;;;5025934;28;45465;-62
2023/06/10 07:31:20;;;;;;;5.60;4.50;;;26.00;48.20;;;;;;5015769;28;46032;-62
2023/06/10 07:33:46;;;;;;;4.90;4.20;;;26.10;48.10;;;;;;5019278;28;45598;-62
2023/06/10 07:36:12;;;;;;;4.65;4.25;;;26.10;48.10;;;;;;5004814;28;45905;-62
2023/06/10 07:38:37;;;;;;;6.22;4.18;;;26.10;48.10;;;;;;5037028;28;45360;-63
2023/06/10 07:41:03;;;;;;;4.45;4.05;;;26.10;48.10;;;;;;5024516;28;45908;-60
2023/06/10 07:43:29;;;;;;;5.20;4.45;;;26.20;48.10;;;;;;5007414;28;45520;-61
2023/06/10 07:45:55;;;;;;;6.40;4.25;;;26.20;48.10;;;;;;5006753;28;45617;-61
2023/06/10 07:48:20;;;;;;;7.38;4.32;;;26.20;48.00;;;;;;5012529;28;45674;-62
2023/06/10 07:50:46;;;;;;;5.00;4.50;;;26.30;47.90;;;;;;5008027;28;46163;-63
2023/06/10 07:53:11;;;;;;;5.55;4.20;;;26.30;47.80;;;;;;5008320;28;45566;-62
2023/06/10 07:55:37;;;;;;;5.10;4.30;;;26.30;47.80;;;;;;5006754;28;45388;-62
2023/06/10 07:58:02;;;;;;;4.53;3.88;;;26.30;47.70;;;;;;5006647;28;44771;-62
2023/06/10 08:00:28;;;;;;;4.50;4.10;;;26.30;47.60;;;;;;5003281;28;45504;-63
2023/06/10 08:02:53;;;;;;;6.20;4.15;;;26.30;47.60;;;;;;5007069;28;45482;-61
2023/06/10 08:05:20;;;;;;;5.75;3.85;;;26.40;47.50;;;;;;5008965;28;45286;-63
2023/06/10 08:07:45;;;;;;;5.90;4.45;;;26.40;47.50;;;;;;5012760;28;45493;-61
2023/06/10 08:10:11;;;;;;;4.93;4.40;;;26.50;47.50;;;;;;5006928;28;47119;-63
2023/06/10 08:12:36;;;;;;;4.57;4.18;;;26.50;47.50;;;;;;5012235;28;44987;-63
2023/06/10 08:15:06;;;;;;;4.55;4.13;;;26.50;47.40;;;;;;5013040;28;45186;-61
2023/06/10 08:17:31;;;;;;;4.45;3.92;;;26.50;47.40;;;;;;5006165;28;45155;-60
2023/06/10 08:19:57;;;;;;;5.00;4.25;;;26.50;47.30;;;;;;5008495;28;46465;-61
2023/06/10 08:22:22;;;;;;;6.75;4.15;;;26.60;47.30;;;;;;5009900;28;45327;-60
2023/06/10 08:24:48;;;;;;;4.22;3.53;;;26.60;47.30;;;;;;5012363;28;45351;-60
2023/06/10 08:27:13;;;;;;;4.10;3.60;;;26.60;47.20;;;;;;5005087;28;45544;-62
2023/06/10 08:29:39;;;;;;;5.68;4.28;;;26.60;47.20;;;;;;5015923;28;46217;-61
2023/06/10 08:32:05;;;;;;;6.40;3.83;;;26.60;47.00;;;;;;5001966;28;45423;-61
2023/06/10 08:34:33;;;;;;;5.78;3.80;;;26.60;47.00;;;;;;5013654;28;45244;-61
2023/06/10 08:36:58;;;;;;;4.85;3.67;;;26.70;46.90;;;;;;5004579;28;45376;-62
2023/06/10 08:39:24;;;;;;;4.68;3.30;;;26.80;46.50;;;;;;5009958;28;47224;-62
2023/06/10 08:42:14;;;;;;;5.85;3.47;;;26.70;46.40;;;;;;5007713;28;45093;-62
2023/06/10 08:44:40;;;;;;;4.28;3.30;;;26.80;45.40;;;;;;5012151;28;45455;-62
2023/06/10 08:47:16;;;;;;;4.15;3.47;;;26.80;46.20;;;;;;5002764;28;45718;-62
2023/06/10 08:49:46;;;;;;;4.63;3.20;;;26.80;45.40;;;;;;5010751;28;45657;-62
2023/06/10 08:52:19;;;;;;;3.58;3.28;;;26.80;45.80;;;;;;5003179;28;45594;-62
2023/06/10 08:54:56;;;;;;;4.65;3.08;;;26.90;45.90;;;;;;5011568;28;45847;-61
2023/06/10 08:57:22;;;;;;;4.00;2.95;;;26.90;45.80;;;;;;5002239;28;45642;-61
2023/06/10 08:59:48;;;;;;;3.00;2.67;;;26.90;45.80;;;;;;5007948;28;46068;-61
2023/06/10 09:02:14;;;;;;;2.90;2.65;;;26.90;45.70;;;;;;4996823;28;45946;-62
2023/06/10 09:04:42;;;;;;;3.63;2.95;;;27.00;45.70;;;;;;5009651;28;45445;-60
2023/06/10 09:07:07;;;;;;;3.10;2.80;;;27.00;45.60;;;;;;5002436;28;45396;-60
2023/06/10 09:09:33;;;;;;;4.90;2.97;;;27.00;45.60;;;;;;5012281;28;46194;-61
2023/06/10 09:11:58;;;;;;;3.75;2.80;;;27.10;45.60;;;;;;5010896;28;45147;-61
2023/06/10 09:14:25;;;;;;;2.92;2.50;;;27.10;45.40;;;;;;5014308;28;45222;-60
2023/06/10 09:16:51;;;;;;;3.28;2.50;;;27.10;45.50;;;;;;5007132;28;45138;-61
2023/06/10 09:19:16;;;;;;;2.60;2.40;;;27.10;45.40;;;;;;5012072;28;45929;-61
2023/06/10 09:21:42;;;;;;;3.38;2.50;;;27.10;45.50;;;;;;5002805;28;46086;-60
2023/06/10 09:24:07;;;;;;;2.70;2.50;;;27.20;45.50;;;;;;5008915;28;45441;-62
2023/06/10 09:26:33;;;;;;;2.70;2.50;;;27.20;45.60;;;;;;5003528;28;45258;-60
2023/06/10 09:29:05;;;;;;;2.85;2.25;;;27.20;45.50;;;;;;5002977;28;46011;-61
2023/06/10 09:31:31;;;;;;;2.87;2.30;;;27.20;45.20;;;;;;5001887;28;45273;-60
2023/06/10 09:34:13;;;;;;;2.50;2.30;;;27.20;45.40;;;;;;5010645;28;45631;-61
2023/06/10 09:36:40;;;;;;;2.50;2.20;;;27.20;44.70;;;;;;5002166;28;45214;-61
2023/06/10 09:39:14;;;;;;;2.45;2.05;;;27.20;45.30;;;;;;5011084;28;45878;-62
2023/06/10 09:41:40;;;;;;;2.50;2.30;;;27.20;45.40;;;;;;4985293;28;45303;-62
2023/06/10 09:44:13;;;;;;;3.38;2.28;;;27.20;45.30;;;;;;5040431;28;46539;-61
2023/06/10 09:46:39;;;;;;;3.45;2.65;;;27.30;44.80;;;;;;4998464;28;45590;-62
2023/06/10 09:49:05;;;;;;;2.45;2.00;;;27.20;45.10;;;;;;5008139;28;45997;-61
2023/06/10 09:51:31;;;;;;;3.75;2.45;;;27.30;45.20;;;;;;5006462;28;45167;-61
2023/06/10 09:53:58;;;;;;;3.97;2.22;;;27.30;45.20;;;;;;5006397;28;46842;-60
2023/06/10 09:56:33;;;;;;;2.80;2.53;;;27.30;45.20;;;;;;5002895;28;44814;-61
2023/06/10 09:58:59;;;;;;;3.03;2.15;;;27.30;44.70;;;;;;5002109;28;45423;-62
2023/06/10 10:01:24;;;;;;;2.28;2.08;;;27.40;45.00;;;;;;4991984;28;45462;-62
2023/06/10 10:03:50;;;;;;;2.78;2.22;;;27.30;44.60;;;;;;5003661;28;45608;-61
2023/06/10 10:06:16;;;;;;;2.95;1.90;;;27.40;44.20;;;;;;5001375;28;44820;-60
2023/06/10 10:08:42;;;;;;;2.15;1.70;;;27.40;43.90;;;;;;5008962;28;46314;-62
2023/06/10 10:11:07;;;;;;;2.15;1.70;;;27.40;43.70;;;;;;4996512;28;45147;-62
2023/06/10 10:13:34;;;;;;;2.53;1.85;;;27.40;43.50;;;;;;5009082;28;45203;-61
2023/06/10 10:16:01;;;;;;;3.22;1.80;;;27.40;43.50;;;;;;5003033;28;45551;-62
2023/06/10 10:18:30;;;;;;;4.30;1.65;;;27.40;43.50;;;;;;5010238;28;46023;-61
2023/06/10 10:20:55;;;;;;;2.20;2.00;;;27.50;43.60;;;;;;5004714;28;45514;-63
2023/06/10 10:23:24;;;;;;;1.77;1.67;;;27.40;43.50;;;;;;5010428;28;45186;-61
2023/06/10 10:25:51;;;;;;;1.92;1.75;;;27.50;43.40;;;;;;5006097;28;45247;-61
2023/06/10 10:28:17;;;;;;;3.85;1.60;;;27.50;43.20;;;;;;5007177;28;45527;-60
2023/06/10 10:30:49;;;;;;;2.10;1.90;;;27.50;43.30;;;;;;5004326;28;45627;-62
2023/06/10 10:33:19;;;;;;;2.25;2.10;;;27.50;43.30;;;;;;4997069;28;45849;-62
2023/06/10 10:35:45;;;;;;;2.28;2.00;;;27.60;43.10;;;;;;5001513;28;45721;-60
2023/06/10 10:38:11;;;;;;;1.75;1.65;;;27.50;43.10;;;;;;5000911;28;45956;-60
2023/06/10 10:40:36;;;;;;;2.33;1.65;;;27.50;43.10;;;;;;4997338;28;45163;-61
2023/06/10 10:43:02;;;;;;;2.50;2.13;;;27.50;43.10;;;;;;5003517;28;46075;-60
2023/06/10 10:45:29;;;;;;;1.80;1.70;;;27.50;43.10;;;;;;4999093;28;45494;-63
2023/06/10 10:47:57;;;;;;;1.73;1.63;;;27.50;43.00;;;;;;4984117;28;45655;-61
2023/06/10 10:50:23;;;;;;;2.28;2.08;;;27.50;43.00;;;;;;4985673;28;45084;-61
2023/06/10 10:52:55;;;;;;;1.98;1.70;;;27.50;43.00;;;;;;5001328;28;46075;-62
2023/06/10 10:55:24;;;;;;;1.95;1.77;;;27.50;43.00;;;;;;4998105;28;45965;-62
2023/06/10 10:58:03;;;;;;;2.08;1.83;;;27.50;43.00;;;;;;5003851;28;46095;-62
2023/06/10 11:00:32;;;;;;;1.92;1.70;;;27.50;42.60;;;;;;4991286;28;45339;-61
2023/06/10 11:03:07;;;;;;;2.15;1.95;;;27.60;43.00;;;;;;4994063;28;51279;-61
2023/06/10 11:05:48;;;;;;;1.95;1.83;;;27.60;42.80;;;;;;4988601;28;45586;-60
2023/06/10 11:08:34;;;;;;;2.85;1.95;;;27.60;42.60;;;;;;4998498;28;46043;-61
2023/06/10 11:11:00;;;;;;;1.95;1.73;;;27.60;42.60;;;;;;4997670;28;45186;-61
2023/06/10 11:13:26;;;;;;;2.03;1.80;;;27.60;42.60;;;;;;5006735;28;46120;-62
2023/06/10 11:15:52;;;;;;;1.88;1.77;;;27.60;42.60;;;;;;4999352;28;44866;-61
2023/06/10 11:18:23;;;;;;;4.88;1.50;;;27.60;42.60;;;;;;5003335;28;46709;-62
2023/06/10 11:20:49;;;;;;;3.08;1.88;;;27.60;42.30;;;;;;5002928;28;44753;-61
2023/06/10 11:23:29;;;;;;;2.30;1.80;;;27.60;42.70;;;;;;5008243;28;45140;-62
2023/06/10 11:26:17;;;;;;;2.05;1.85;;;27.60;42.00;;;;;;5003754;28;45224;-61
2023/06/10 11:28:46;;;;;;;1.85;1.75;;;27.60;42.00;;;;;;5008278;28;46590;-62
2023/06/10 11:31:23;;;;;;;2.08;1.95;;;27.60;42.70;;;;;;5000456;28;45250;-63
2023/06/10 11:34:03;;;;;;;1.75;1.65;;;27.60;42.30;;;;;;5003313;28;45390;-61
2023/06/10 11:36:28;;;;;;;2.80;1.98;;;27.60;42.10;;;;;;5000967;28;45280;-61
2023/06/10 11:39:02;;;;;;;2.55;2.35;;;27.60;42.70;;;;;;5006149;28;46832;-62
2023/06/10 11:41:31;;;;;;;2.42;2.20;;;27.60;42.40;;;;;;5001629;28;45263;-61
2023/06/10 11:44:00;;;;;;;4.20;2.35;;;27.60;42.80;;;;;;5007786;28;45262;-62
2023/06/10 11:46:29;;;;;;;1.98;1.88;;;27.60;42.80;;;;;;5011310;28;45392;-64
2023/06/10 11:48:55;;;;;;;2.95;2.03;;;27.60;42.80;;;;;;5006448;28;45144;-61
2023/06/10 11:51:21;;;;;;;2.22;2.03;;;27.60;42.90;;;;;;4997182;28;44812;-62
2023/06/10 11:53:47;;;;;;;2.35;2.15;;;27.60;42.90;;;;;;5005442;28;45807;-61
2023/06/10 11:56:13;;;;;;;2.45;2.10;;;27.60;42.90;;;;;;5000565;28;46052;-62
2023/06/10 11:58:39;;;;;;;5.03;2.22;;;27.60;42.90;;;;;;5007606;28;46155;-62
2023/06/10 12:01:05;;;;;;;2.13;1.92;;;27.60;42.80;;;;;;4998414;28;46078;-61
2023/06/10 12:03:37;;;;;;;2.63;2.00;;;27.60;42.90;;;;;;5034369;28;45523;-61
2023/06/10 12:06:06;;;;;;;2.22;1.95;;;27.60;42.70;;;;;;5002589;28;45431;-62
2023/06/10 12:08:32;;;;;;;2.83;2.13;;;27.60;42.70;;;;;;5034110;28;46245;-63
2023/06/10 12:10:58;;;;;;;2.33;2.00;;;27.60;42.80;;;;;;5003216;28;45508;-61
2023/06/10 12:13:26;;;;;;;2.20;2.00;;;27.60;42.80;;;;;;5020863;28;45216;-61
2023/06/10 12:15:52;;;;;;;3.05;2.40;;;27.60;43.30;;;;;;4996065;28;46592;-60
2023/06/10 12:18:24;;;;;;;2.30;2.10;;;27.70;42.90;;;;;;4983862;28;47102;-61
2023/06/10 12:20:50;;;;;;;2.20;2.00;;;27.70;42.80;;;;;;5001356;28;45304;-61
2023/06/10 12:23:17;;;;;;;3.17;1.85;;;27.70;42.90;;;;;;5006767;28;45492;-61
2023/06/10 12:25:52;;;;;;;1.80;1.70;;;27.70;42.90;;;;;;4996969;28;45639;-64
2023/06/10 12:28:22;;;;;;;2.10;1.90;;;27.80;42.40;;;;;;5006285;28;45693;-62
2023/06/10 12:30:48;;;;;;;2.40;2.00;;;27.80;42.70;;;;;;5000648;28;45272;-61
2023/06/10 12:33:20;;;;;;;1.83;1.73;;;27.80;42.80;;;;;;5008298;28;45818;-61
2023/06/10 12:35:49;;;;;;;2.20;2.00;;;27.80;42.40;;;;;;4999484;28;45471;-60
2023/06/10 12:38:22;;;;;;;2.00;1.90;;;27.80;42.50;;;;;;5008802;28;47005;-61
2023/06/10 12:40:47;;;;;;;2.35;2.15;;;27.90;42.60;;;;;;4998559;28;45274;-60
2023/06/10 12:43:13;;;;;;;1.95;1.85;;;27.90;42.60;;;;;;5012779;28;45847;-62
2023/06/10 12:45:40;;;;;;;3.47;1.83;;;28.00;42.60;;;;;;5000044;28;45797;-61
2023/06/10 12:48:17;;;;;;;3.20;1.88;;;28.00;42.50;;;;;;5009654;28;46020;-62
2023/06/10 12:50:43;;;;;;;2.10;1.90;;;28.00;42.50;;;;;;5011397;28;45173;-61
2023/06/10 12:53:11;;;;;;;2.95;1.80;;;28.00;42.60;;;;;;5012193;28;45339;-61
2023/06/10 12:55:36;;;;;;;5.97;1.80;;;28.00;42.60;;;;;;5001245;28;45427;-60
2023/06/10 12:58:02;;;;;;;3.30;1.98;;;28.00;42.60;;;;;;5004766;28;46034;-60
2023/06/10 13:00:29;;;;;;;1.92;1.80;;;28.00;42.60;;;;;;4997219;28;46297;-60
2023/06/10 13:02:55;;;;;;;1.70;1.60;;;28.00;42.60;;;;;;5008946;28;45588;-59
2023/06/10 13:05:21;;;;;;;2.22;1.75;;;28.00;42.60;;;;;;5004115;28;44829;-61
2023/06/10 13:07:47;;;;;;;1.90;1.80;;;28.00;42.60;;;;;;5039574;28;47309;-59
2023/06/10 13:10:16;;;;;;;1.90;1.80;;;28.00;42.60;;;;;;5005639;28;45289;-64
2023/06/10 13:12:42;;;;;;;1.80;1.70;;;28.00;42.40;;;;;;5008339;28;45726;-62
2023/06/10 13:15:11;;;;;;;2.78;1.83;;;28.00;42.60;;;;;;4991809;28;45403;-60
2023/06/10 13:17:37;;;;;;;2.08;1.88;;;28.00;42.40;;;;;;5033800;28;46051;-61
2023/06/10 13:20:05;;;;;;;2.38;1.73;;;28.00;42.20;;;;;;5007779;28;45170;-61
2023/06/10 13:22:32;;;;;;;1.65;1.55;;;28.10;42.00;;;;;;5006817;28;45215;-61
2023/06/10 13:24:58;;;;;;;2.15;1.70;;;28.10;42.00;;;;;;5013265;28;45462;-61
2023/06/10 13:27:24;;;;;;;2.33;1.60;;;28.10;42.00;;;;;;5008390;28;45258;-62
2023/06/10 13:29:49;;;;;;;2.88;1.58;;;28.10;42.00;;;;;;5012262;28;45457;-61
2023/06/10 13:32:15;;;;;;;1.90;1.70;;;28.10;41.90;;;;;;5001639;28;45265;-62
2023/06/10 13:34:40;;;;;;;1.90;1.50;;;28.10;41.80;;;;;;5011274;28;45420;-61
2023/06/10 13:37:06;;;;;;;2.45;1.77;;;28.20;41.90;;;;;;5008514;28;46906;-60
2023/06/10 13:39:32;;;;;;;1.83;1.73;;;28.20;41.80;;;;;;5007895;28;45586;-60
2023/06/10 13:41:57;;;;;;;1.60;1.35;;;28.20;41.70;;;;;;5006089;28;45747;-60
2023/06/10 13:44:23;;;;;;;1.60;1.50;;;28.20;41.70;;;;;;5009574;28;45261;-60
2023/06/10 13:46:48;;;;;;;1.90;1.50;;;28.20;41.70;;;;;;5003012;28;46232;-60
2023/06/10 13:49:14;;;;;;;1.55;1.45;;;28.20;41.70;;;;;;5011399;28;45364;-61
2023/06/10 13:51:39;;;;;;;1.52;1.42;;;28.20;41.80;;;;;;5001547;28;45128;-62
2023/06/10 13:54:05;;;;;;;1.83;1.60;;;28.20;42.00;;;;;;5010673;28;44789;-61
2023/06/10 13:56:31;;;;;;;2.10;1.50;;;28.20;42.20;;;;;;5006255;28;45990;-61
2023/06/10 13:58:56;;;;;;;1.85;1.60;;;28.20;42.70;;;;;;5009241;28;45343;-62
2023/06/10 14:01:22;;;;;;;1.55;1.45;;;28.20;42.40;;;;;;4996830;28;45427;-61
2023/06/10 14:03:47;;;;;;;1.73;1.63;;;28.20;42.50;;;;;;5011256;28;45392;-61
2023/06/10 14:06:18;;;;;;;2.00;1.70;;;28.20;42.50;;;;;;5006240;28;45368;-61
2023/06/10 14:08:43;;;;;;;1.67;1.58;;;28.20;42.40;;;;;;5005912;28;46222;-62
2023/06/10 14:11:09;;;;;;;1.80;1.70;;;28.20;42.10;;;;;;5003191;28;45358;-61
2023/06/10 14:13:38;;;;;;;1.70;1.52;;;28.20;42.10;;;;;;5006390;28;45743;-61
2023/06/10 14:16:03;;;;;;;1.70;1.50;;;28.20;41.90;;;;;;4989676;28;45555;-62
2023/06/10 14:18:29;;;;;;;1.60;1.50;;;28.20;41.70;;;;;;5008131;28;44651;-61
2023/06/10 14:20:54;;;;;;;1.40;1.30;;;28.20;41.60;;;;;;4994405;28;45055;-61
2023/06/10 14:23:20;;;;;;;1.50;1.40;;;28.20;41.60;;;;;;5004767;28;44912;-62
2023/06/10 14:25:45;;;;;;;1.80;1.23;;;28.20;41.30;;;;;;5008633;28;45950;-61
2023/06/10 14:28:11;;;;;;;1.30;1.23;;;28.20;41.40;;;;;;5014438;28;45456;-62
2023/06/10 14:30:36;;;;;;;1.40;1.30;;;28.20;41.40;;;;;;5006077;28;45497;-61
2023/06/10 14:33:02;;;;;;;1.58;1.48;;;28.20;41.40;;;;;;5008487;28;44913;-61
2023/06/10 14:35:28;;;;;;;1.60;1.50;;;28.20;41.20;;;;;;5009116;28;46043;-62
2023/06/10 14:37:53;;;;;;;1.33;1.23;;;28.30;41.20;;;;;;5015003;28;45990;-59
2023/06/10 14:40:21;;;;;;;1.60;1.50;;;28.30;41.20;;;;;;5008835;28;45297;-61
2023/06/10 14:42:46;;;;;;;1.60;1.50;;;28.30;41.00;;;;;;5011741;28;45407;-62
2023/06/10 14:45:12;;;;;;;1.90;1.35;;;28.30;41.00;;;;;;5013301;28;46036;-64
2023/06/10 14:47:38;;;;;;;3.50;1.17;;;28.20;41.00;;;;;;5030020;28;45192;-63
2023/06/10 14:50:04;;;;;;;1.23;1.13;;;28.30;41.00;;;;;;5017936;28;45169;-62
2023/06/10 14:52:29;;;;;;;1.42;1.30;;;28.30;41.00;;;;;;5004393;28;45288;-61
2023/06/10 14:54:55;;;;;;;4.63;1.50;;;28.30;41.10;;;;;;5010616;28;46092;-61
2023/06/10 14:57:20;;;;;;;1.67;1.27;;;28.20;41.50;;;;;;5004766;28;45838;-61
2023/06/10 14:59:46;;;;;;;3.80;1.45;;;28.20;42.00;;;;;;5014497;28;45308;-62
2023/06/10 15:02:11;;;;;;;2.45;1.40;;;28.20;42.70;;;;;;4996572;28;45910;-67
2023/06/10 15:04:37;;;;;;;1.30;1.20;;;28.20;43.00;;;;;;5006426;28;46028;-63
2023/06/10 15:07:03;;;;;;;1.30;1.20;;;28.10;43.20;;;;;;5004976;28;45259;-62
2023/06/10 15:09:28;;;;;;;2.45;1.40;;;28.10;43.20;;;;;;5014679;28;44759;-62
2023/06/10 15:11:54;;;;;;;1.83;1.17;;;28.10;43.10;;;;;;5006077;28;45397;-62
2023/06/10 15:14:20;;;;;;;1.48;1.38;;;28.00;43.10;;;;;;5010545;28;46248;-61
2023/06/10 15:16:45;;;;;;;1.27;1.17;;;28.00;43.00;;;;;;5004800;28;45459;-62
2023/06/10 15:19:11;;;;;;;1.40;1.30;;;28.00;42.70;;;;;;4999356;28;45100;-62
2023/06/10 15:21:37;;;;;;;1.55;1.45;;;28.00;42.60;;;;;;5001898;28;45352;-62
2023/06/10 15:24:02;;;;;;;1.73;1.60;;;28.00;42.60;;;;;;5014278;28;46292;-61
2023/06/10 15:26:28;;;;;;;1.42;1.30;;;28.00;42.30;;;;;;5006503;28;45196;-62
2023/06/10 15:28:53;;;;;;;1.48;1.38;;;28.00;42.40;;;;;;5008214;28;44815;-62
2023/06/10 15:31:19;;;;;;;1.50;1.40;;;28.00;42.30;;;;;;5002345;28;45289;-63
2023/06/10 15:33:44;;;;;;;1.85;1.20;;;28.00;42.40;;;;;;5009426;28;46892;-62
2023/06/10 15:36:10;;;;;;;1.50;1.40;;;28.00;42.30;;;;;;5011167;28;44713;-62
2023/06/10 15:38:35;;;;;;;1.70;1.20;;;28.00;42.40;;;;;;5012787;28;45511;-62
2023/06/10 15:41:01;;;;;;;1.55;1.42;;;28.00;42.60;;;;;;5009800;28;45221;-62
2023/06/10 15:43:26;;;;;;;5.95;1.65;;;28.00;42.80;;;;;;5009270;28;46322;-62
2023/06/10 15:45:52;;;;;;;2.10;1.33;;;28.00;43.60;;;;;;4995580;28;45711;-62
2023/06/10 15:48:17;;;;;;;7.22;1.75;;;27.90;43.60;;;;;;5008190;28;44670;-62
2023/06/10 15:50:45;;;;;;;1.98;1.45;;;27.90;44.50;;;;;;5006078;28;45698;-61
2023/06/10 15:53:10;;;;;;;3.50;1.50;;;27.80;45.10;;;;;;5008988;28;45870;-62
2023/06/10 15:55:36;;;;;;;2.83;1.58;;;27.80;45.40;;;;;;5000193;28;45598;-62
2023/06/10 15:58:03;;;;;;;2.00;1.48;;;27.80;45.60;;;;;;5010467;28;45277;-62
2023/06/10 16:00:29;;;;;;;1.67;1.58;;;27.80;45.70;;;;;;4997816;28;45662;-59
2023/06/10 16:02:54;;;;;;;2.10;1.60;;;27.80;45.80;;;;;;5006448;28;45501;-60
2023/06/10 16:05:20;;;;;;;4.25;1.92;;;27.70;45.90;;;;;;5002119;28;45522;-60
2023/06/10 16:07:46;;;;;;;2.83;2.05;;;27.70;46.10;;;;;;5009255;28;45347;-61
2023/06/10 16:10:11;;;;;;;6.00;2.15;;;27.70;46.20;;;;;;5011972;28;45654;-62
2023/06/10 16:12:37;;;;;;;2.15;1.95;;;27.70;46.30;;;;;;5002058;28;46255;-61
2023/06/10 16:15:06;;;;;;;2.75;2.10;;;27.70;46.30;;;;;;5012534;28;45160;-62
2023/06/10 16:17:32;;;;;;;7.78;2.47;;;27.70;46.50;;;;;;5036971;28;44741;-62
2023/06/10 16:19:57;;;;;;;2.75;2.42;;;27.70;46.60;;;;;;5000826;28;45641;-61
2023/06/10 16:22:23;;;;;;;3.10;2.50;;;27.60;46.60;;;;;;4999683;28;46793;-62
2023/06/10 16:24:48;;;;;;;5.15;2.40;;;27.60;46.80;;;;;;5010314;28;45010;-61
2023/06/10 16:27:14;;;;;;;4.40;2.80;;;27.60;46.80;;;;;;5002086;28;44766;-62
2023/06/10 16:29:39;;;;;;;3.40;3.10;;;27.60;46.90;;;;;;5014049;28;45629;-62
2023/06/10 16:32:05;;;;;;;3.10;2.80;;;27.60;47.00;;;;;;4999235;28;45865;-62
2023/06/10 16:34:31;;;;;;;9.48;2.88;;;27.60;47.20;;;;;;5009092;28;45019;-61
2023/06/10 16:36:57;;;;;;;3.70;2.92;;;27.60;47.20;;;;;;5003111;28;45450;-62
2023/06/10 16:39:22;;;;;;;4.28;3.17;;;27.60;47.00;;;;;;5010974;28;45653;-61
2023/06/10 16:41:48;;;;;;;4.13;3.05;;;27.60;46.80;;;;;;5003400;28;46189;-62
2023/06/10 16:44:16;;;;;;;3.58;3.28;;;27.60;46.70;;;;;;5004441;28;45188;-63
2023/06/10 16:46:42;;;;;;;3.80;3.40;;;27.60;46.60;;;;;;4999732;28;45350;-60
2023/06/10 16:49:07;;;;;;;4.30;3.05;;;27.60;46.60;;;;;;5022415;28;45142;-62
2023/06/10 16:51:33;;;;;;;3.58;3.22;;;27.60;46.50;;;;;;5006248;28;45867;-62
2023/06/10 16:53:59;;;;;;;3.80;3.50;;;27.60;46.30;;;;;;5016245;28;45322;-61
2023/06/10 16:56:25;;;;;;;3.10;2.80;;;27.60;46.20;;;;;;5002907;28;44829;-61
2023/06/10 16:58:51;;;;;;;6.72;3.33;;;27.60;46.00;;;;;;5005910;28;45167;-63
2023/06/10 17:01:16;;;;;;;3.53;3.05;;;27.60;45.90;;;;;;4998135;28;46043;-62
2023/06/10 17:03:42;;;;;;;5.72;3.05;;;27.60;45.90;;;;;;5006727;28;45236;-61
2023/06/10 17:06:07;;;;;;;3.95;3.47;;;27.60;45.70;;;;;;5001510;28;45273;-62
2023/06/10 17:08:33;;;;;;;4.75;3.22;;;27.60;45.70;;;;;;5009624;28;45339;-61
2023/06/10 17:10:58;;;;;;;3.70;3.33;;;27.60;45.60;;;;;;4996275;28;46701;-61
2023/06/10 17:13:24;;;;;;;3.60;3.30;;;27.60;45.60;;;;;;5017851;28;45281;-62
2023/06/10 17:15:51;;;;;;;5.63;3.40;;;27.60;45.60;;;;;;4997000;28;45257;-61
2023/06/10 17:18:16;;;;;;;3.85;3.40;;;27.60;45.60;;;;;;5002494;28;44946;-62
2023/06/10 17:20:42;;;;;;;8.93;3.55;;;27.60;45.50;;;;;;4996897;28;46004;-62
2023/06/10 17:23:07;;;;;;;3.47;3.17;;;27.60;45.40;;;;;;5001321;28;45526;-61
2023/06/10 17:25:35;;;;;;;3.15;2.85;;;27.60;45.30;;;;;;5002892;28;45095;-63
2023/06/10 17:28:00;;;;;;;3.50;3.20;;;27.60;45.10;;;;;;5002923;28;46208;-62
2023/06/10 17:30:26;;;;;;;3.35;3.05;;;27.60;45.00;;;;;;4995223;28;45941;-62
2023/06/10 17:32:51;;;;;;;3.83;2.88;;;27.60;45.10;;;;;;4999673;28;45284;-62
2023/06/10 17:35:17;;;;;;;5.95;3.25;;;27.50;45.00;;;;;;4999812;28;45807;-62
2023/06/10 17:37:42;;;;;;;3.67;3.28;;;27.60;45.00;;;;;;4995226;28;46352;-63
2023/06/10 17:40:08;;;;;;;3.33;2.55;;;27.60;45.00;;;;;;4989200;28;46140;-61
2023/06/10 17:42:34;;;;;;;5.78;2.95;;;27.50;44.80;;;;;;5021075;28;45171;-62
2023/06/10 17:45:00;;;;;;;4.55;3.00;;;27.50;44.60;;;;;;5006193;28;45249;-61
2023/06/10 17:47:25;;;;;;;3.97;2.50;;;27.50;44.30;;;;;;4997208;28;46734;-63
2023/06/10 17:49:51;;;;;;;3.03;2.58;;;27.50;44.20;;;;;;5019413;28;46065;-63
2023/06/10 17:52:16;;;;;;;3.08;2.45;;;27.50;43.80;;;;;;4998782;28;45344;-62
2023/06/10 17:54:42;;;;;;;4.18;3.00;;;27.50;43.60;;;;;;5006213;28;49232;-63
2023/06/10 17:57:07;;;;;;;3.05;2.78;;;27.40;43.50;;;;;;5000324;28;45397;-62
2023/06/10 17:59:33;;;;;;;3.75;2.80;;;27.40;43.40;;;;;;5012025;28;47064;-62
2023/06/10 18:01:58;;;;;;;3.40;2.67;;;27.40;43.40;;;;;;4998618;28;45497;-62
2023/06/10 18:04:24;;;;;;;4.78;2.70;;;27.40;43.30;;;;;;5005224;28;45427;-62
2023/06/10 18:06:50;;;;;;;3.10;2.80;;;27.40;43.40;;;;;;5001333;28;45257;-63
2023/06/10 18:09:15;;;;;;;3.92;2.88;;;27.40;43.50;;;;;;5002943;28;45479;-62
2023/06/10 18:11:41;;;;;;;5.43;2.80;;;27.40;43.60;;;;;;5000796;28;45435;-62
2023/06/10 18:14:06;;;;;;;3.42;2.90;;;27.30;43.60;;;;;;5007307;28;44744;-62
2023/06/10 18:16:32;;;;;;;3.10;2.78;;;27.30;43.60;;;;;;4989274;28;45429;-62
2023/06/10 18:18:57;;;;;;;4.40;2.95;;;27.30;43.60;;;;;;5005184;28;46252;-61
2023/06/10 18:21:23;;;;;;;2.83;2.63;;;27.30;43.70;;;;;;5002344;28;45104;-61
2023/06/10 18:23:48;;;;;;;4.75;2.90;;;27.30;43.70;;;;;;4995054;28;45081;-62
2023/06/10 18:26:14;;;;;;;3.33;3.03;;;27.30;43.70;;;;;;4999294;28;45591;-63
2023/06/10 18:28:40;;;;;;;3.30;2.83;;;27.30;43.80;;;;;;5002581;28;50277;-62
2023/06/10 18:31:06;;;;;;;4.20;3.10;;;27.30;44.00;;;;;;4997813;28;45238;-61
2023/06/10 18:33:32;;;;;;;5.47;3.03;;;27.30;44.10;;;;;;5006701;28;45538;-63
2023/06/10 18:35:57;;;;;;;4.45;3.10;;;27.30;44.10;;;;;;5002157;28;45203;-62
2023/06/10 18:38:23;;;;;;;4.10;3.20;;;27.30;44.30;;;;;;5005406;28;46213;-62
2023/06/10 18:40:48;;;;;;;6.22;3.50;;;27.30;44.10;;;;;;4995726;28;45388;-62
2023/06/10 18:43:14;;;;;;;6.13;3.88;;;27.30;44.20;;;;;;5010811;28;44652;-62
2023/06/10 18:45:39;;;;;;;4.80;3.10;;;27.20;44.10;;;;;;4999612;28;45940;-66
2023/06/10 18:48:05;;;;;;;4.47;3.30;;;27.20;44.30;;;;;;5005295;28;45337;-63
2023/06/10 18:50:31;;;;;;;4.70;3.40;;;27.20;44.30;;;;;;5004627;28;45556;-64
2023/06/10 18:52:56;;;;;;;3.95;3.40;;;27.20;44.30;;;;;;5007265;28;45461;-62
2023/06/10 18:55:22;;;;;;;4.78;3.63;;;27.20;44.40;;;;;;5001374;28;45568;-62
2023/06/10 18:57:47;;;;;;;3.88;3.47;;;27.10;44.30;;;;;;5003651;28;45851;-62
2023/06/10 19:00:16;;;;;;;5.43;3.17;;;27.10;44.40;;;;;;5015552;28;46053;-65
2023/06/10 19:02:42;;;;;;;3.72;3.17;;;27.10;44.40;;;;;;5003262;28;45395;-62
2023/06/10 19:05:09;;;;;;;5.15;2.92;;;27.10;44.80;;;;;;5006726;28;45066;-62
2023/06/10 19:07:35;;;;;;;5.25;3.60;;;27.10;44.40;;;;;;5008392;28;46075;-62